Patricksburg, Indiana
Current Conditions -  °F | °C
As of 6:53 PM on Wednesday 28 Jan 2015 (Local Time) from KHUF Reporting Station
Clear Clear  
Wind Chill: 26°   Ceiling: Unl
Heat Index: 35°   Visibility: 10mi
Dew Point: 20°   Wind: 13mph
Humidity: 54%   Direction: 150°SSE
Pressure: 30.1"   Gusts: NA
Location:  39.32°N, 86.96°W
Report Text: KHUF 282353Z 15011KT 10SM CLR 02/M07 A3010 RMK AO2 SLP199 T00171067 10028 20006 58027
Loading
Personal Weather Stations






























Interactive Weather Map New forecast layout! Learn more

10-Day Weather Forecast

Advertisements
Track Severe Weather on mobile